createdAt,value
2022-11-03T00:02:07.480Z,10.01
2022-11-03T00:04:34.596Z,10.03
2022-11-03T00:07:01.715Z,10.00
2022-11-03T00:09:28.771Z,10.08
2022-11-03T00:11:56.138Z,10.09
2022-11-03T00:14:23.181Z,10.11
2022-11-03T00:16:52.537Z,10.06
2022-11-03T00:19:20.526Z,10.16
2022-11-03T00:21:47.737Z,10.18
2022-11-03T00:24:14.831Z,10.17
2022-11-03T00:26:41.847Z,10.16
2022-11-03T00:29:13.834Z,10.23
2022-11-03T00:31:43.135Z,10.21
2022-11-03T00:34:10.817Z,10.21
2022-11-03T00:36:40.974Z,10.23
2022-11-03T00:39:08.562Z,10.24
2022-11-03T00:41:35.688Z,10.21
2022-11-03T00:44:10.960Z,10.24
2022-11-03T00:46:38.354Z,10.25
2022-11-03T00:49:06.120Z,10.29
2022-11-03T00:51:34.985Z,10.26
2022-11-03T00:54:03.991Z,10.28
2022-11-03T00:56:39.929Z,10.28
2022-11-03T00:59:08.527Z,10.24
2022-11-03T01:01:45.226Z,10.30
2022-11-03T01:04:34.600Z,10.30
2022-11-03T01:07:04.286Z,10.28
2022-11-03T01:09:35.974Z,10.36
2022-11-03T01:12:04.820Z,10.33
2022-11-03T01:14:33.394Z,10.35
2022-11-03T01:17:00.533Z,10.40
2022-11-03T01:19:28.094Z,10.42
2022-11-03T01:21:55.474Z,10.39
2022-11-03T01:24:22.613Z,10.38
2022-11-03T01:26:50.269Z,10.38
2022-11-03T01:29:17.770Z,10.37
2022-11-03T01:31:44.811Z,10.38
2022-11-03T01:34:20.380Z,10.38
2022-11-03T01:36:48.094Z,10.34
2022-11-03T01:39:17.668Z,10.33
2022-11-03T01:41:47.852Z,10.38
2022-11-03T01:44:14.858Z,10.42
2022-11-03T01:47:07.440Z,10.34
2022-11-03T01:49:53.234Z,10.40
2022-11-03T01:52:27.646Z,10.38
2022-11-03T01:55:22.610Z,10.34
2022-11-03T01:58:15.092Z,10.35
2022-11-03T02:00:45.387Z,10.36
2022-11-03T02:03:13.950Z,10.24
2022-11-03T02:05:42.570Z,10.29
2022-11-03T02:08:15.768Z,10.29
2022-11-03T02:10:42.992Z,10.25
2022-11-03T02:13:20.306Z,10.28
2022-11-03T02:15:53.810Z,10.27
2022-11-03T02:18:26.113Z,10.26
2022-11-03T02:21:16.982Z,10.22
2022-11-03T02:23:53.243Z,10.24
2022-11-03T02:26:20.556Z,10.20
2022-11-03T02:28:47.893Z,10.19
2022-11-03T02:31:16.799Z,10.23
2022-11-03T02:34:11.843Z,10.25
2022-11-03T02:36:59.385Z,10.30
2022-11-03T02:39:40.726Z,10.27
2022-11-03T02:42:09.572Z,10.25
2022-11-03T02:44:38.236Z,10.28
2022-11-03T02:47:10.686Z,10.29
2022-11-03T02:49:46.912Z,10.29
2022-11-03T02:52:37.033Z,10.30
2022-11-03T02:55:18.021Z,10.30
2022-11-03T02:57:54.721Z,10.30
2022-11-03T03:00:21.930Z,10.24
2022-11-03T03:02:59.455Z,10.33
2022-11-03T03:05:30.348Z,10.31
2022-11-03T03:08:04.715Z,10.33
2022-11-03T03:10:37.850Z,10.35
2022-11-03T03:13:07.264Z,10.39
2022-11-03T03:16:03.918Z,10.43
2022-11-03T03:18:56.478Z,10.44
2022-11-03T03:21:26.790Z,10.47
2022-11-03T03:24:02.257Z,10.52
2022-11-03T03:26:37.502Z,10.42
2022-11-03T03:29:28.497Z,10.44
2022-11-03T03:31:59.925Z,10.52
2022-11-03T03:34:35.341Z,10.50
2022-11-03T03:37:05.075Z,10.57
2022-11-03T03:39:36.440Z,10.61
2022-11-03T03:42:05.207Z,10.66
2022-11-03T03:44:33.580Z,10.65
2022-11-03T03:47:06.916Z,10.62
2022-11-03T03:49:33.926Z,10.65
2022-11-03T03:52:01.844Z,10.64
2022-11-03T03:54:28.860Z,10.55
2022-11-03T03:57:05.410Z,10.61
2022-11-03T03:59:32.633Z,10.63
2022-11-03T04:01:59.766Z,10.68
2022-11-03T04:04:26.859Z,10.68
2022-11-03T04:07:13.914Z,10.76
2022-11-03T04:09:41.064Z,10.80
2022-11-03T04:12:27.800Z,10.77
2022-11-03T04:15:13.667Z,10.82
2022-11-03T04:18:04.945Z,10.81
2022-11-03T04:20:51.538Z,10.75
2022-11-03T04:23:19.105Z,10.71
2022-11-03T04:25:52.977Z,10.70
2022-11-03T04:28:19.832Z,10.74
2022-11-03T04:30:47.284Z,10.74
2022-11-03T04:33:16.680Z,10.76
2022-11-03T04:35:44.386Z,10.76
2022-11-03T04:38:14.151Z,10.70
2022-11-03T04:40:55.755Z,10.65
2022-11-03T04:43:34.002Z,10.63
2022-11-03T04:46:02.099Z,10.65
2022-11-03T04:48:30.039Z,10.63
2022-11-03T04:51:02.093Z,10.61
2022-11-03T04:53:32.941Z,10.57
2022-11-03T04:56:04.437Z,10.54
2022-11-03T04:58:35.773Z,10.50
2022-11-03T05:01:04.097Z,10.49
2022-11-03T05:03:33.855Z,10.49
2022-11-03T05:06:26.308Z,10.47
2022-11-03T05:08:58.714Z,10.43
2022-11-03T05:11:37.731Z,10.45
2022-11-03T05:14:14.737Z,10.44
2022-11-03T05:16:42.117Z,10.47
2022-11-03T05:19:18.151Z,10.38
2022-11-03T05:21:49.436Z,10.43
2022-11-03T05:24:19.230Z,10.48
2022-11-03T05:26:46.824Z,10.51
2022-11-03T05:29:21.487Z,10.52
2022-11-03T05:31:50.545Z,10.56
2022-11-03T05:34:37.476Z,10.56
2022-11-03T05:37:07.190Z,10.58
2022-11-03T05:39:40.465Z,10.60
2022-11-03T05:42:28.825Z,10.58
2022-11-03T05:44:56.299Z,10.54
2022-11-03T05:47:27.749Z,10.60
2022-11-03T05:50:02.275Z,10.58
2022-11-03T05:52:29.826Z,10.69
2022-11-03T05:55:01.982Z,10.68
2022-11-03T05:57:32.128Z,10.70
2022-11-03T06:00:01.890Z,10.68
2022-11-03T06:02:40.327Z,10.67
2022-11-03T06:05:19.077Z,10.65
2022-11-03T06:07:47.335Z,10.63
2022-11-03T06:10:27.821Z,10.61
2022-11-03T06:12:59.882Z,10.62
2022-11-03T06:15:30.931Z,10.70
2022-11-03T06:17:58.739Z,10.70
2022-11-03T06:20:26.435Z,10.77
2022-11-03T06:22:57.338Z,10.79
2022-11-03T06:25:33.213Z,10.83
2022-11-03T06:28:04.579Z,10.84
2022-11-03T06:30:34.625Z,10.85
2022-11-03T06:33:14.812Z,10.82
2022-11-03T06:35:43.241Z,10.89
2022-11-03T06:38:22.598Z,10.89
2022-11-03T06:40:53.896Z,10.85
2022-11-03T06:43:33.045Z,10.87
2022-11-03T06:46:05.905Z,10.93
2022-11-03T06:48:35.132Z,10.86
2022-11-03T06:51:02.437Z,10.89
2022-11-03T06:53:33.815Z,10.82
2022-11-03T06:56:01.102Z,10.91
2022-11-03T06:58:34.673Z,10.93
2022-11-03T07:01:04.355Z,10.94
2022-11-03T07:03:35.073Z,10.98
2022-11-03T07:06:11.447Z,10.95
2022-11-03T07:08:44.594Z,11.03
2022-11-03T07:11:18.604Z,10.99
2022-11-03T07:13:51.679Z,10.98
2022-11-03T07:16:19.209Z,10.98
2022-11-03T07:18:47.685Z,10.96
2022-11-03T07:21:35.991Z,11.00
2022-11-03T07:24:18.789Z,11.04
2022-11-03T07:26:45.962Z,11.14
2022-11-03T07:29:25.767Z,11.15
2022-11-03T07:31:54.777Z,11.14
2022-11-03T07:34:25.888Z,11.14
2022-11-03T07:36:55.847Z,11.19
2022-11-03T07:39:23.372Z,11.15
2022-11-03T07:41:51.337Z,11.21
2022-11-03T07:44:21.455Z,11.22
2022-11-03T07:46:50.573Z,11.26
2022-11-03T07:49:28.939Z,11.32
2022-11-03T07:51:59.016Z,11.34
2022-11-03T07:54:30.680Z,11.36
2022-11-03T07:57:00.802Z,11.42
2022-11-03T07:59:39.187Z,11.43
2022-11-03T08:02:34.262Z,11.43
2022-11-03T08:05:01.929Z,11.40
2022-11-03T08:07:30.035Z,11.44
2022-11-03T08:09:57.670Z,11.44
2022-11-03T08:12:24.973Z,11.43
2022-11-03T08:14:52.024Z,11.43
2022-11-03T08:17:19.192Z,11.42
2022-11-03T08:19:46.196Z,11.46
2022-11-03T08:22:13.210Z,11.43
2022-11-03T08:24:40.366Z,11.51
2022-11-03T08:27:07.441Z,11.51
2022-11-03T08:29:34.498Z,11.50
2022-11-03T08:32:02.104Z,11.52
2022-11-03T08:34:29.148Z,11.54
2022-11-03T08:36:56.166Z,11.57
2022-11-03T08:39:23.218Z,11.61
2022-11-03T08:41:50.305Z,11.63
2022-11-03T08:44:17.375Z,11.67
2022-11-03T08:46:44.377Z,11.62
2022-11-03T08:49:11.773Z,11.65
2022-11-03T08:51:43.986Z,11.74
2022-11-03T08:54:11.788Z,11.76
2022-11-03T08:56:38.847Z,11.70
2022-11-03T08:59:05.887Z,11.75
2022-11-03T09:01:33.064Z,11.79
2022-11-03T09:04:00.247Z,11.83
2022-11-03T09:06:27.320Z,11.85
2022-11-03T09:11:41.866Z,12.03
2022-11-03T09:14:08.954Z,12.03
2022-11-03T09:16:35.933Z,12.15
2022-11-03T09:19:03.145Z,12.15
2022-11-03T09:21:30.207Z,12.28
2022-11-03T09:23:59.947Z,12.28
2022-11-03T09:26:27.380Z,12.35
2022-11-03T09:28:54.374Z,12.35
2022-11-03T09:31:21.523Z,12.32
2022-11-03T09:33:48.597Z,12.41
2022-11-03T09:36:15.822Z,12.42
2022-11-03T09:38:42.965Z,12.49
2022-11-03T09:41:26.546Z,12.48
2022-11-03T09:43:58.152Z,12.44
2022-11-03T09:46:26.930Z,12.45
2022-11-03T09:48:54.796Z,12.48
2022-11-03T09:51:23.773Z,12.50
2022-11-03T09:53:50.950Z,12.55
2022-11-03T09:56:21.412Z,12.62
2022-11-03T09:58:53.079Z,12.70
2022-11-03T10:01:22.142Z,12.78
2022-11-03T10:03:49.643Z,12.81
2022-11-03T10:06:17.539Z,12.93
2022-11-03T10:08:46.186Z,12.95
2022-11-03T10:11:13.856Z,12.98
2022-11-03T10:13:50.358Z,13.07
2022-11-03T10:16:22.728Z,13.14
2022-11-03T10:18:50.598Z,13.08
2022-11-03T10:21:23.723Z,13.11
2022-11-03T10:23:50.773Z,13.05
2022-11-03T10:26:19.669Z,13.08
2022-11-03T10:29:04.408Z,13.08
2022-11-03T10:31:41.873Z,13.03
2022-11-03T10:34:34.308Z,13.05
2022-11-03T10:37:24.360Z,13.07
2022-11-03T10:40:01.278Z,13.04
2022-11-03T10:42:35.438Z,13.03
2022-11-03T10:45:12.243Z,12.97
2022-11-03T10:47:39.931Z,12.96
2022-11-03T10:50:22.511Z,12.99
2022-11-03T10:52:50.757Z,12.98
2022-11-03T10:55:23.756Z,13.03
2022-11-03T10:57:56.563Z,13.00
2022-11-03T11:00:24.828Z,12.99
2022-11-03T11:02:58.857Z,13.02
2022-11-03T11:05:26.653Z,13.14
2022-11-03T11:07:54.981Z,13.17
2022-11-03T11:10:27.734Z,13.17
2022-11-03T11:13:19.167Z,13.24
2022-11-03T11:15:47.430Z,13.22
2022-11-03T11:18:30.044Z,13.23
2022-11-03T11:20:58.841Z,13.25
2022-11-03T11:23:29.022Z,13.28
2022-11-03T11:26:30.040Z,13.32
2022-11-03T11:29:10.678Z,13.34
2022-11-03T11:31:41.955Z,13.33
2022-11-03T11:34:09.281Z,13.34
2022-11-03T11:36:47.513Z,13.47
2022-11-03T11:39:20.572Z,13.52
2022-11-03T11:42:06.073Z,13.54
2022-11-03T11:44:54.947Z,13.57
2022-11-03T11:47:29.120Z,13.61
2022-11-03T11:50:15.300Z,13.68
2022-11-03T11:53:01.121Z,13.77
2022-11-03T11:55:41.473Z,13.81
2022-11-03T11:58:35.485Z,13.85
2022-11-03T12:01:21.704Z,13.84
2022-11-03T12:03:50.737Z,13.90
2022-11-03T12:06:31.393Z,13.98
2022-11-03T12:09:15.497Z,14.09
2022-11-03T12:11:47.635Z,14.17
2022-11-03T12:14:31.191Z,14.20
2022-11-03T12:16:59.896Z,14.23
2022-11-03T12:19:35.648Z,14.20
2022-11-03T12:22:42.806Z,14.20
2022-11-03T12:25:32.598Z,14.22
2022-11-03T12:28:00.159Z,14.22
2022-11-03T12:30:27.300Z,14.21
2022-11-03T12:32:54.679Z,14.22
2022-11-03T12:35:21.750Z,14.23
2022-11-03T12:37:48.802Z,14.29
2022-11-03T12:40:15.823Z,14.35
2022-11-03T12:42:42.888Z,14.37
2022-11-03T12:45:10.723Z,14.39
2022-11-03T12:47:37.750Z,14.41
2022-11-03T12:50:05.026Z,14.40
2022-11-03T12:52:34.903Z,14.36
2022-11-03T12:55:05.650Z,14.42
2022-11-03T12:57:32.762Z,14.40
2022-11-03T13:00:02.830Z,14.44
2022-11-03T13:02:31.451Z,14.45
2022-11-03T13:04:58.799Z,14.47
2022-11-03T13:07:30.495Z,14.54
2022-11-03T13:10:01.557Z,14.69
2022-11-03T13:12:31.233Z,14.76
2022-11-03T13:15:05.255Z,14.84
2022-11-03T13:17:52.086Z,14.86
2022-11-03T13:20:20.852Z,14.86
2022-11-03T13:22:48.079Z,14.83
2022-11-03T13:25:15.213Z,14.90
2022-11-03T13:27:42.265Z,14.76
2022-11-03T13:30:09.894Z,14.67
2022-11-03T13:32:36.908Z,14.59
2022-11-03T13:35:08.129Z,14.48
2022-11-03T13:37:37.935Z,14.46
2022-11-03T13:40:06.130Z,14.52
2022-11-03T13:42:33.112Z,14.51
2022-11-03T13:45:00.780Z,14.52
2022-11-03T13:47:40.467Z,14.47
2022-11-03T13:50:15.461Z,14.41
2022-11-03T13:52:43.380Z,14.41
2022-11-03T14:00:46.373Z,14.33
2022-11-03T14:06:00.462Z,14.26
2022-11-03T14:08:27.629Z,14.24
2022-11-03T14:10:54.639Z,14.20
2022-11-03T14:13:21.657Z,14.12
2022-11-03T14:15:48.654Z,14.04
2022-11-03T14:18:15.730Z,14.08
2022-11-03T14:20:42.785Z,13.99
2022-11-03T14:23:11.697Z,13.93
2022-11-03T14:25:38.952Z,13.91
2022-11-03T14:28:06.116Z,13.92
2022-11-03T14:30:33.220Z,13.88
2022-11-03T14:33:01.254Z,13.82
2022-11-03T14:35:28.322Z,13.83
2022-11-03T14:37:55.357Z,13.81
2022-11-03T14:40:40.710Z,13.78
2022-11-03T14:43:07.979Z,13.79
2022-11-03T14:45:38.328Z,13.82
2022-11-03T14:48:09.250Z,13.81
2022-11-03T14:50:37.068Z,13.77
2022-11-03T14:53:04.257Z,13.72
2022-11-03T14:55:31.311Z,13.67
2022-11-03T14:57:58.305Z,13.63
2022-11-03T15:00:25.519Z,13.57
2022-11-03T15:02:52.516Z,13.53
2022-11-03T15:05:40.598Z,13.48
2022-11-03T15:08:07.941Z,13.45
2022-11-03T15:10:35.230Z,13.44
2022-11-03T15:13:02.577Z,13.38
2022-11-03T15:15:30.172Z,13.30
2022-11-03T15:18:02.509Z,13.22
2022-11-03T15:20:31.371Z,13.24
2022-11-03T15:25:45.591Z,13.23
2022-11-03T15:28:12.590Z,13.18
2022-11-03T15:30:42.654Z,13.10
2022-11-03T15:33:10.025Z,13.01
2022-11-03T15:35:37.337Z,13.01
2022-11-03T15:38:04.903Z,12.96
2022-11-03T15:40:32.747Z,12.97
2022-11-03T15:43:03.020Z,12.92
2022-11-03T15:45:30.909Z,12.92
2022-11-03T15:47:58.629Z,12.89
2022-11-03T15:50:26.359Z,12.86
2022-11-03T15:52:54.331Z,12.75
2022-11-03T15:55:21.924Z,12.83
2022-11-03T15:57:49.726Z,12.76
2022-11-03T16:00:19.080Z,12.69
2022-11-03T16:02:49.221Z,12.65
2022-11-03T16:05:19.778Z,12.62
2022-11-03T16:07:51.005Z,12.59
2022-11-03T16:10:18.026Z,12.52
2022-11-03T16:12:45.795Z,12.46
2022-11-03T16:15:12.932Z,12.45
2022-11-03T16:17:45.567Z,12.41
2022-11-03T16:20:12.928Z,12.38
2022-11-03T16:22:40.463Z,12.38
2022-11-03T16:25:12.367Z,12.31
2022-11-03T16:27:41.970Z,12.27
2022-11-03T16:30:09.910Z,12.27
2022-11-03T16:32:36.939Z,12.21
2022-11-03T16:35:04.153Z,12.18
2022-11-03T16:37:31.152Z,12.18
2022-11-03T16:39:58.139Z,12.12
2022-11-03T16:42:25.404Z,12.09
2022-11-03T16:44:52.479Z,12.09
2022-11-03T16:47:19.485Z,12.04
2022-11-03T16:49:46.478Z,12.01
2022-11-03T16:52:13.475Z,12.02
2022-11-03T16:54:40.605Z,11.97
2022-11-03T16:57:07.665Z,11.90
2022-11-03T16:59:34.629Z,11.87
2022-11-03T17:02:04.704Z,11.84
2022-11-03T17:04:34.528Z,11.80
2022-11-03T17:07:01.559Z,11.78
2022-11-03T17:09:29.150Z,11.72
2022-11-03T17:11:56.206Z,11.72
2022-11-03T17:14:23.231Z,11.67
2022-11-03T17:16:50.259Z,11.54
2022-11-03T17:19:17.383Z,11.60
2022-11-03T17:21:44.687Z,11.57
2022-11-03T17:24:13.175Z,11.52
2022-11-03T17:26:52.920Z,11.47
2022-11-03T17:29:23.785Z,11.44
2022-11-03T17:31:51.612Z,11.41
2022-11-03T17:34:22.428Z,11.36
2022-11-03T17:36:50.420Z,11.27
2022-11-03T17:39:22.652Z,11.29
2022-11-03T17:41:49.716Z,11.27
2022-11-03T17:44:18.340Z,11.23
2022-11-03T17:46:45.343Z,11.21
2022-11-03T17:49:12.333Z,11.18
2022-11-03T17:51:41.924Z,11.14
2022-11-03T17:54:15.989Z,11.14
2022-11-03T17:56:43.398Z,11.12
2022-11-03T17:59:14.551Z,11.08
2022-11-03T18:01:42.221Z,11.01
2022-11-03T18:06:45.427Z,11.02
2022-11-03T18:09:12.497Z,10.99
2022-11-03T18:12:00.898Z,11.03
2022-11-03T18:14:29.212Z,10.98
2022-11-03T18:17:02.338Z,10.96
2022-11-03T18:19:31.144Z,10.97
2022-11-03T18:21:59.220Z,10.93
2022-11-03T18:24:27.591Z,10.92
2022-11-03T18:26:54.723Z,10.91
2022-11-03T18:29:21.823Z,10.89
2022-11-03T18:31:50.358Z,10.85
2022-11-03T18:34:23.786Z,10.86
2022-11-03T18:36:52.620Z,10.87
2022-11-03T18:39:27.962Z,10.87
2022-11-03T18:41:55.046Z,10.88
2022-11-03T18:44:24.575Z,10.82
2022-11-03T18:46:52.713Z,10.88
2022-11-03T18:49:20.059Z,10.89
2022-11-03T18:51:50.496Z,10.89
2022-11-03T18:54:21.447Z,10.87
2022-11-03T18:56:49.852Z,10.88
2022-11-03T18:59:26.092Z,10.88
2022-11-03T19:01:54.012Z,10.90
2022-11-03T19:04:21.150Z,10.90
2022-11-03T19:06:50.240Z,10.86
2022-11-03T19:09:21.306Z,10.91
2022-11-03T19:11:49.399Z,10.86
2022-11-03T19:14:23.154Z,10.86
2022-11-03T19:17:17.165Z,10.90
2022-11-03T19:19:40.179Z,10.88
2022-11-03T19:22:18.450Z,10.85
2022-11-03T19:24:46.000Z,10.93
2022-11-03T19:27:27.176Z,10.92
2022-11-03T19:29:55.761Z,10.91
2022-11-03T19:32:27.756Z,10.92
2022-11-03T19:35:01.224Z,10.86
2022-11-03T19:37:35.531Z,10.97
2022-11-03T19:40:08.607Z,10.89
2022-11-03T19:42:38.444Z,10.99
2022-11-03T19:45:13.397Z,10.96
2022-11-03T19:48:10.501Z,10.92
2022-11-03T19:50:36.094Z,10.94
2022-11-03T19:53:05.992Z,10.94
2022-11-03T19:55:40.459Z,10.94
2022-11-03T19:58:14.221Z,10.95
2022-11-03T20:00:41.396Z,10.97
2022-11-03T20:03:08.398Z,10.95
2022-11-03T20:05:35.764Z,10.96
2022-11-03T20:08:07.425Z,10.90
2022-11-03T20:10:36.092Z,10.88
2022-11-03T20:13:04.104Z,10.85
2022-11-03T20:15:31.316Z,10.84
2022-11-03T20:17:58.347Z,10.81
2022-11-03T20:20:33.740Z,10.81
2022-11-03T20:23:01.526Z,10.80
2022-11-03T20:25:35.162Z,10.79
2022-11-03T20:28:20.740Z,10.79
2022-11-03T20:30:48.619Z,10.79
2022-11-03T20:33:17.753Z,10.74
2022-11-03T20:35:46.643Z,10.74
2022-11-03T20:38:16.676Z,10.75
2022-11-03T20:40:43.669Z,10.71
2022-11-03T20:43:29.241Z,10.67
2022-11-03T20:45:56.639Z,10.74
2022-11-03T20:48:23.882Z,10.72
2022-11-03T20:50:52.302Z,10.71
2022-11-03T20:53:22.610Z,10.75
2022-11-03T20:55:51.485Z,10.73
2022-11-03T20:58:18.957Z,10.73
2022-11-03T21:00:48.147Z,10.70
2022-11-03T21:03:45.139Z,10.70
2022-11-03T21:06:06.073Z,10.73
2022-11-03T21:08:33.077Z,10.76
2022-11-03T21:11:18.833Z,10.71
2022-11-03T21:13:45.919Z,10.75
2022-11-03T21:16:31.670Z,10.71
2022-11-03T21:19:17.443Z,10.70
2022-11-03T21:21:44.500Z,10.68
2022-11-03T21:24:14.576Z,10.58
2022-11-03T21:26:41.966Z,10.53
2022-11-03T21:29:09.083Z,10.47
2022-11-03T21:31:36.125Z,10.41
2022-11-03T21:34:03.568Z,10.36
2022-11-03T21:36:30.630Z,10.32
2022-11-03T21:38:57.929Z,10.27
2022-11-03T21:41:47.779Z,10.22
2022-11-03T21:44:15.073Z,10.20
2022-11-03T21:46:43.687Z,10.18
2022-11-03T21:49:29.537Z,10.16
2022-11-03T21:51:56.659Z,10.16
2022-11-03T21:54:23.702Z,10.12
2022-11-03T21:56:50.803Z,10.12
2022-11-03T21:59:17.917Z,10.09
2022-11-03T22:01:45.088Z,10.06
2022-11-03T22:04:12.294Z,10.01
2022-11-03T22:06:39.389Z,9.97
2022-11-03T22:09:06.436Z,9.93
2022-11-03T22:11:33.439Z,9.84
2022-11-03T22:14:01.792Z,9.88
2022-11-03T22:16:37.983Z,9.85
2022-11-03T22:19:26.349Z,9.80
2022-11-03T22:22:13.100Z,9.79
2022-11-03T22:24:59.463Z,9.76
2022-11-03T22:27:27.885Z,9.77
2022-11-03T22:30:13.725Z,9.74
2022-11-03T22:32:40.754Z,9.78
2022-11-03T22:35:28.212Z,9.76
2022-11-03T22:38:12.498Z,9.77
2022-11-03T22:40:59.818Z,9.76
2022-11-03T22:43:46.392Z,9.76
2022-11-03T22:46:14.731Z,9.77
2022-11-03T22:48:41.990Z,9.74
2022-11-03T22:51:13.167Z,9.77
2022-11-03T22:53:59.422Z,9.72
2022-11-03T22:56:28.635Z,9.77
2022-11-03T22:58:56.186Z,9.77
2022-11-03T23:01:26.503Z,9.74
2022-11-03T23:03:54.199Z,9.65
2022-11-03T23:06:26.538Z,9.64
2022-11-03T23:08:54.915Z,9.60
2022-11-03T23:11:24.592Z,9.59
2022-11-03T23:13:58.549Z,9.59
2022-11-03T23:16:27.784Z,9.58
2022-11-03T23:19:14.892Z,9.57
2022-11-03T23:21:43.876Z,9.57
2022-11-03T23:24:30.484Z,9.58
2022-11-03T23:26:59.605Z,9.55
2022-11-03T23:29:27.362Z,9.52
2022-11-03T23:31:55.179Z,9.60
2022-11-03T23:34:23.533Z,9.58
2022-11-03T23:36:50.610Z,9.54
2022-11-03T23:39:20.044Z,9.60
2022-11-03T23:41:48.535Z,9.62
2022-11-03T23:44:17.067Z,9.62
2022-11-03T23:47:03.440Z,9.62
2022-11-03T23:49:31.580Z,9.66
2022-11-03T23:51:59.686Z,9.66
2022-11-03T23:54:27.246Z,9.65
2022-11-03T23:57:13.263Z,9.65
2022-11-03T23:59:40.457Z,9.62
